Time;durP1;ratioP1;P1;durP2;ratioP2;P2;SDS_P1;SDS_P2;PMS_P1;PMS_P2;Temp;Humidity;BMP_temperature;BMP_pressure;BME280_temperature;BME280_humidity;BME280_pressure;Samples;Min_cycle;Max_cycle;Signal;HPM_P1;HPM_P2
2021/11/04 00:00:58;;;;;;;2.25;1.75;;;8.20;91.00;;;;;;5072528;28;20597;-66
2021/11/04 00:03:30;;;;;;;2.50;1.35;;;8.30;90.70;;;;;;5072161;28;20190;-66
2021/11/04 00:05:57;;;;;;;2.38;1.50;;;8.30;90.80;;;;;;5073060;28;20206;-66
2021/11/04 00:08:34;;;;;;;2.30;1.38;;;8.20;90.90;;;;;;5072568;28;20198;-66
2021/11/04 00:11:01;;;;;;;2.28;1.30;;;8.20;90.90;;;;;;5072895;28;20204;-66
2021/11/04 00:13:33;;;;;;;2.97;1.42;;;8.20;91.00;;;;;;5071812;28;20194;-66
2021/11/04 00:16:09;;;;;;;5.50;2.05;;;8.20;90.70;;;;;;5072570;28;20196;-66
2021/11/04 00:18:37;;;;;;;4.10;2.50;;;8.10;91.10;;;;;;5072578;28;20607;-66
2021/11/04 00:21:06;;;;;;;5.00;2.20;;;8.10;91.50;;;;;;5072611;28;20194;-66
2021/11/04 00:23:42;;;;;;;4.45;2.55;;;8.00;91.40;;;;;;5071675;28;20186;-66
2021/11/04 00:26:14;;;;;;;3.00;1.83;;;8.00;91.60;;;;;;5072552;28;20255;-66
2021/11/04 00:28:48;;;;;;;3.60;1.92;;;7.90;91.70;;;;;;5071948;28;20293;-66
2021/11/04 00:31:25;;;;;;;2.00;1.30;;;7.90;92.00;;;;;;5072689;28;20189;-66
2021/11/04 00:33:57;;;;;;;3.15;1.50;;;7.90;91.90;;;;;;5072010;28;20483;-66
2021/11/04 00:36:25;;;;;;;3.20;1.55;;;8.00;91.90;;;;;;5072343;28;20291;-66
2021/11/04 00:38:54;;;;;;;3.35;1.63;;;8.00;91.70;;;;;;5071947;28;20628;-66
2021/11/04 00:41:22;;;;;;;3.10;1.73;;;7.90;92.00;;;;;;5072432;28;20576;-65
2021/11/04 00:43:51;;;;;;;2.30;1.40;;;7.90;92.10;;;;;;5071876;28;20189;-66
2021/11/04 00:46:22;;;;;;;2.20;1.50;;;7.90;92.10;;;;;;5072329;28;20214;-66
2021/11/04 00:48:52;;;;;;;2.72;1.80;;;7.80;92.30;;;;;;5071617;28;20183;-67
2021/11/04 00:51:19;;;;;;;2.28;1.65;;;7.80;92.20;;;;;;5072083;28;20196;-66
2021/11/04 00:53:49;;;;;;;2.20;1.40;;;7.80;92.40;;;;;;5071466;28;20209;-67
2021/11/04 00:56:26;;;;;;;2.60;1.40;;;7.90;92.20;;;;;;5071577;28;20244;-66
2021/11/04 00:58:55;;;;;;;2.83;1.10;;;7.80;92.30;;;;;;5072222;28;20217;-66
2021/11/04 01:01:24;;;;;;;2.05;1.30;;;7.80;92.20;;;;;;5071853;28;20194;-66
2021/11/04 01:04:01;;;;;;;3.30;1.50;;;7.70;92.40;;;;;;5072227;28;20190;-66
2021/11/04 01:06:31;;;;;;;6.22;1.50;;;7.70;92.70;;;;;;5071938;28;20214;-66
2021/11/04 01:09:07;;;;;;;3.25;1.23;;;7.60;92.70;;;;;;5072009;28;20214;-66
2021/11/04 01:11:38;;;;;;;3.20;1.60;;;7.60;93.00;;;;;;5071970;28;20259;-66
2021/11/04 01:14:08;;;;;;;2.35;1.40;;;7.60;92.90;;;;;;5071857;28;20225;-66
2021/11/04 01:16:35;;;;;;;2.22;1.13;;;7.50;93.00;;;;;;5071523;28;20194;-65
2021/11/04 01:19:05;;;;;;;2.65;1.40;;;7.50;92.90;;;;;;5072107;28;20839;-66
2021/11/04 01:21:36;;;;;;;2.17;1.00;;;7.40;92.80;;;;;;5071625;28;20186;-66
2021/11/04 01:24:06;;;;;;;1.95;1.05;;;7.40;92.60;;;;;;5071561;28;20201;-66
2021/11/04 01:26:41;;;;;;;1.60;0.70;;;7.30;93.10;;;;;;5071082;28;20193;-66
2021/11/04 01:29:23;;;;;;;1.70;0.90;;;7.20;92.70;;;;;;5071545;28;20182;-66
2021/11/04 01:31:52;;;;;;;1.70;0.70;;;7.10;93.00;;;;;;5071915;28;20560;-66
2021/11/04 01:34:26;;;;;;;1.60;0.80;;;7.00;93.40;;;;;;5071197;28;20212;-66
2021/11/04 01:36:54;;;;;;;1.80;0.85;;;7.10;93.60;;;;;;5071419;28;20210;-66
2021/11/04 01:39:33;;;;;;;1.80;0.80;;;7.10;93.60;;;;;;5071158;28;20186;-66
2021/11/04 01:42:06;;;;;;;1.50;0.70;;;7.20;93.70;;;;;;5071679;28;20198;-66
2021/11/04 01:44:35;;;;;;;1.63;0.70;;;7.30;93.60;;;;;;5070996;28;20218;-67
2021/11/04 01:47:03;;;;;;;1.50;0.60;;;7.40;93.30;;;;;;5071622;28;20232;-66
2021/11/04 01:49:36;;;;;;;1.88;0.88;;;7.40;92.70;;;;;;5071101;28;20710;-66
2021/11/04 01:52:04;;;;;;;1.90;1.02;;;7.40;92.60;;;;;;5071670;28;20193;-66
2021/11/04 01:54:32;;;;;;;1.60;0.60;;;7.40;92.00;;;;;;5071265;28;20641;-66
2021/11/04 01:57:05;;;;;;;1.40;0.60;;;7.40;92.10;;;;;;5071745;28;20732;-66
2021/11/04 01:59:36;;;;;;;1.50;0.60;;;7.50;91.90;;;;;;5071274;28;20208;-66
2021/11/04 02:02:16;;;;;;;1.60;0.75;;;7.50;92.00;;;;;;5071554;28;20191;-66
2021/11/04 02:04:53;;;;;;;3.30;1.00;;;7.50;91.80;;;;;;5072555;28;20204;-67
2021/11/04 02:07:27;;;;;;;1.52;0.60;;;7.50;91.90;;;;;;5054929;28;20198;-66
2021/11/04 02:10:02;;;;;;;2.03;0.77;;;7.50;91.50;;;;;;5072265;28;20190;-66
2021/11/04 02:12:41;;;;;;;1.55;0.73;;;7.50;91.40;;;;;;5074520;28;20194;-66
2021/11/04 02:15:11;;;;;;;2.55;0.80;;;7.50;91.00;;;;;;5075064;28;20674;-67
2021/11/04 02:17:44;;;;;;;1.70;0.90;;;7.40;91.10;;;;;;5074724;28;20244;-66
2021/11/04 02:20:20;;;;;;;1.50;0.70;;;7.40;91.00;;;;;;5075201;28;20244;-67
2021/11/04 02:22:56;;;;;;;1.50;0.65;;;7.50;90.90;;;;;;5074603;28;20300;-66
2021/11/04 02:25:33;;;;;;;1.60;0.70;;;7.50;90.90;;;;;;5074772;28;20193;-67
2021/11/04 02:28:02;;;;;;;1.50;0.63;;;7.50;90.70;;;;;;5074534;28;20205;-66
2021/11/04 02:30:31;;;;;;;1.50;0.60;;;7.50;90.20;;;;;;5074603;28;20205;-66
2021/11/04 02:33:05;;;;;;;1.40;0.60;;;7.50;90.30;;;;;;5074047;28;20191;-66
2021/11/04 02:35:32;;;;;;;1.63;0.73;;;7.50;90.30;;;;;;5074712;28;20197;-67
2021/11/04 02:38:04;;;;;;;1.40;0.50;;;7.50;90.30;;;;;;5074134;28;20218;-66
2021/11/04 02:40:33;;;;;;;1.88;0.70;;;7.50;90.30;;;;;;5074777;28;20235;-66
2021/11/04 02:43:01;;;;;;;1.50;0.63;;;7.50;90.20;;;;;;5074122;28;20659;-67
2021/11/04 02:45:31;;;;;;;2.05;0.80;;;7.50;90.10;;;;;;5074315;28;20277;-66
2021/11/04 02:48:01;;;;;;;1.40;0.60;;;7.50;89.40;;;;;;5074030;28;20186;-66
2021/11/04 02:50:30;;;;;;;1.48;0.70;;;7.50;89.90;;;;;;5074429;28;20186;-70
2021/11/04 02:53:06;;;;;;;4.22;0.60;;;7.40;89.00;;;;;;5073820;28;20186;-66
2021/11/04 02:55:37;;;;;;;1.50;0.60;;;7.30;88.50;;;;;;5074107;28;20649;-67
2021/11/04 02:58:11;;;;;;;1.40;0.60;;;7.30;89.00;;;;;;5073349;28;20684;-67
2021/11/04 03:00:40;;;;;;;1.60;0.70;;;7.20;89.80;;;;;;5074126;28;20567;-66
2021/11/04 03:03:10;;;;;;;1.58;0.68;;;7.30;90.00;;;;;;5073810;28;20198;-66
2021/11/04 03:05:45;;;;;;;1.50;0.70;;;7.30;90.20;;;;;;5074235;28;20213;-66
2021/11/04 03:08:13;;;;;;;1.40;0.60;;;7.30;90.20;;;;;;5073089;28;20182;-66
2021/11/04 03:10:42;;;;;;;1.60;0.60;;;7.40;90.30;;;;;;5073960;28;20192;-65
2021/11/04 03:13:29;;;;;;;1.40;0.60;;;7.40;90.50;;;;;;5073776;28;20595;-65
2021/11/04 03:15:59;;;;;;;1.40;0.60;;;7.40;90.60;;;;;;5073034;28;20197;-68
2021/11/04 03:18:33;;;;;;;2.30;0.70;;;7.40;90.50;;;;;;5073310;28;20259;-67
2021/11/04 03:21:00;;;;;;;1.50;0.60;;;7.40;90.50;;;;;;5073819;28;20672;-67
2021/11/04 03:23:36;;;;;;;1.48;0.60;;;7.40;90.90;;;;;;5073228;28;20192;-67
2021/11/04 03:26:05;;;;;;;1.60;0.70;;;7.40;90.50;;;;;;5073761;28;20221;-67
2021/11/04 03:28:34;;;;;;;1.50;0.60;;;7.30;89.90;;;;;;5073234;28;20252;-66
2021/11/04 03:31:05;;;;;;;1.40;0.63;;;7.30;90.00;;;;;;5073428;28;20205;-67
2021/11/04 03:33:38;;;;;;;1.50;0.70;;;7.30;89.90;;;;;;5073035;28;20663;-65
2021/11/04 03:36:12;;;;;;;1.40;0.70;;;7.30;89.60;;;;;;5073384;28;20204;-67
2021/11/04 03:38:42;;;;;;;1.60;0.68;;;7.30;89.40;;;;;;5073055;28;20250;-66
2021/11/04 03:41:13;;;;;;;1.60;0.60;;;7.30;88.00;;;;;;5073277;28;20186;-67
2021/11/04 03:43:46;;;;;;;1.40;0.50;;;7.20;87.30;;;;;;5072867;28;20186;-67
2021/11/04 03:46:16;;;;;;;3.13;0.70;;;7.20;88.80;;;;;;5073253;28;20268;-68
2021/11/04 03:48:44;;;;;;;1.60;0.82;;;7.10;87.90;;;;;;5072792;28;20671;-67
2021/11/04 03:51:15;;;;;;;1.50;0.80;;;7.00;88.00;;;;;;5072877;28;20190;-66
2021/11/04 03:53:43;;;;;;;1.38;0.55;;;7.00;87.20;;;;;;5072774;28;20190;-67
2021/11/04 03:56:14;;;;;;;1.58;0.70;;;6.90;86.20;;;;;;5073009;28;20282;-66
2021/11/04 03:58:42;;;;;;;1.50;0.60;;;6.80;87.60;;;;;;5072418;28;20210;-67
2021/11/04 04:01:11;;;;;;;1.50;0.70;;;6.80;88.80;;;;;;5073119;28;20649;-67
2021/11/04 04:03:47;;;;;;;2.35;0.60;;;6.80;88.50;;;;;;5072889;28;20194;-66
2021/11/04 04:06:15;;;;;;;1.80;0.50;;;6.70;87.50;;;;;;5073006;28;20198;-67
2021/11/04 04:08:48;;;;;;;2.17;0.88;;;6.70;88.00;;;;;;5072933;28;20619;-66
2021/11/04 04:11:17;;;;;;;1.50;0.80;;;6.60;88.40;;;;;;5073116;28;20201;-66
2021/11/04 04:13:47;;;;;;;2.85;0.70;;;6.50;87.80;;;;;;5072214;28;20648;-66
2021/11/04 04:16:14;;;;;;;1.40;0.63;;;6.50;89.20;;;;;;5073189;28;20197;-67
2021/11/04 04:18:58;;;;;;;2.28;1.20;;;6.50;89.30;;;;;;5072672;28;20644;-66
2021/11/04 04:21:26;;;;;;;1.60;0.80;;;6.50;89.70;;;;;;5073004;28;20190;-67
2021/11/04 04:23:53;;;;;;;1.60;0.60;;;6.60;89.70;;;;;;5072555;28;20218;-66
2021/11/04 04:26:25;;;;;;;2.40;0.90;;;6.50;89.50;;;;;;5072414;28;20656;-67
2021/11/04 04:28:55;;;;;;;1.40;0.50;;;6.50;88.90;;;;;;5072505;28;20239;-66
2021/11/04 04:31:23;;;;;;;1.50;0.60;;;6.40;88.30;;;;;;5072404;28;20247;-67
2021/11/04 04:33:55;;;;;;;1.88;1.00;;;6.30;87.90;;;;;;5072501;28;20247;-67
2021/11/04 04:36:23;;;;;;;1.70;0.98;;;6.30;88.80;;;;;;5072274;28;20272;-66
2021/11/04 04:38:54;;;;;;;1.92;1.02;;;6.20;87.90;;;;;;5072566;28;20571;-67
2021/11/04 04:41:22;;;;;;;2.50;1.02;;;6.30;89.20;;;;;;5072547;28;20186;-66
2021/11/04 04:43:50;;;;;;;1.83;0.80;;;6.30;89.80;;;;;;5072755;28;20631;-66
2021/11/04 04:46:23;;;;;;;1.50;0.50;;;6.40;90.00;;;;;;5072715;28;20229;-66
2021/11/04 04:48:52;;;;;;;1.40;0.60;;;6.40;89.80;;;;;;5072464;28;20284;-67
2021/11/04 04:51:21;;;;;;;1.60;0.60;;;6.50;89.60;;;;;;5072201;28;20194;-67
2021/11/04 04:53:53;;;;;;;1.65;0.60;;;6.50;89.40;;;;;;5072355;28;20189;-68
2021/11/04 04:56:22;;;;;;;2.08;0.80;;;6.50;89.30;;;;;;5072248;28;20197;-67
2021/11/04 04:58:49;;;;;;;1.40;0.60;;;6.60;89.80;;;;;;5072380;28;20224;-67
2021/11/04 05:01:29;;;;;;;1.35;0.50;;;6.70;89.60;;;;;;5072415;28;20660;-67
2021/11/04 05:03:57;;;;;;;1.60;0.60;;;6.60;88.80;;;;;;5072250;28;20182;-66
2021/11/04 05:06:24;;;;;;;1.40;0.60;;;6.60;88.20;;;;;;5072152;28;20200;-66
2021/11/04 05:08:53;;;;;;;1.50;0.63;;;6.70;88.30;;;;;;5072510;28;20281;-67
2021/11/04 05:11:23;;;;;;;1.33;0.50;;;6.70;88.40;;;;;;5072027;28;20197;-66
2021/11/04 05:13:51;;;;;;;5.10;0.80;;;6.80;88.20;;;;;;5072076;28;20194;-66
2021/11/04 05:16:22;;;;;;;1.50;0.70;;;6.70;88.30;;;;;;5072208;28;20620;-67
2021/11/04 05:18:51;;;;;;;1.83;0.82;;;6.70;87.70;;;;;;5071862;28;20218;-67
2021/11/04 05:21:19;;;;;;;1.50;0.60;;;6.80;87.70;;;;;;5072387;28;20243;-66
2021/11/04 05:23:51;;;;;;;1.65;0.70;;;6.80;87.70;;;;;;5071769;28;20294;-67
2021/11/04 05:26:20;;;;;;;1.60;0.65;;;6.70;86.30;;;;;;5071908;28;20193;-67
2021/11/04 05:28:50;;;;;;;1.60;0.70;;;6.70;85.40;;;;;;5072085;28;20235;-67
2021/11/04 05:31:19;;;;;;;1.60;0.80;;;6.60;86.30;;;;;;5052446;28;20202;-67
2021/11/04 05:33:48;;;;;;;1.40;0.60;;;6.70;86.90;;;;;;5052173;28;20198;-67
2021/11/04 05:36:16;;;;;;;1.60;0.70;;;6.60;87.60;;;;;;5071485;28;20191;-68
2021/11/04 05:38:51;;;;;;;1.60;0.80;;;6.60;87.40;;;;;;5073129;28;20222;-70
2021/11/04 05:41:19;;;;;;;1.50;0.80;;;6.60;87.30;;;;;;5076055;28;20233;-67
2021/11/04 05:43:48;;;;;;;1.80;0.75;;;6.60;87.10;;;;;;5074578;28;20193;-67
2021/11/04 05:46:16;;;;;;;2.72;1.10;;;6.60;86.30;;;;;;5075541;28;20229;-66
2021/11/04 05:48:44;;;;;;;1.52;0.75;;;6.60;86.60;;;;;;5075480;28;20196;-68
2021/11/04 05:51:14;;;;;;;5.22;1.20;;;6.60;87.20;;;;;;5075905;28;20197;-67
2021/11/04 05:53:44;;;;;;;1.50;0.70;;;6.50;87.40;;;;;;5075115;28;20186;-67
2021/11/04 05:56:11;;;;;;;1.70;1.00;;;6.50;86.00;;;;;;5075420;28;20190;-67
2021/11/04 05:58:39;;;;;;;1.40;0.60;;;6.60;86.40;;;;;;5075444;28;20314;-66
2021/11/04 06:01:12;;;;;;;1.60;0.65;;;6.60;86.30;;;;;;5075059;28;20229;-66
2021/11/04 06:03:40;;;;;;;1.58;0.70;;;6.50;86.70;;;;;;5075192;28;20585;-66
2021/11/04 06:06:15;;;;;;;1.42;0.65;;;6.50;87.10;;;;;;5072257;28;20196;-66
2021/11/04 06:08:46;;;;;;;1.60;0.70;;;6.60;86.70;;;;;;5073813;28;20272;-67
2021/11/04 06:11:20;;;;;;;1.73;0.90;;;6.60;86.60;;;;;;5072949;28;20186;-66
2021/11/04 06:13:48;;;;;;;1.83;0.80;;;6.50;86.30;;;;;;5072860;28;20262;-67
2021/11/04 06:16:19;;;;;;;1.38;0.55;;;6.50;86.90;;;;;;5073103;28;20190;-66
2021/11/04 06:18:48;;;;;;;1.75;0.88;;;6.60;88.00;;;;;;5073479;28;20579;-65
2021/11/04 06:21:26;;;;;;;1.45;0.60;;;6.60;87.30;;;;;;5072643;28;20672;-69
2021/11/04 06:24:08;;;;;;;1.52;0.68;;;6.60;87.20;;;;;;5073330;28;20194;-66
2021/11/04 06:26:40;;;;;;;1.40;0.60;;;6.60;86.60;;;;;;5072962;28;20251;-67
2021/11/04 06:29:14;;;;;;;2.20;0.70;;;6.60;86.30;;;;;;5072459;28;20297;-67
2021/11/04 06:31:55;;;;;;;1.40;0.50;;;6.70;86.00;;;;;;5072902;28;20717;-67
2021/11/04 06:34:33;;;;;;;1.50;0.60;;;6.70;86.00;;;;;;5072786;28;20735;-66
2021/11/04 06:37:05;;;;;;;1.50;0.70;;;6.70;86.20;;;;;;5069181;28;20199;-66
2021/11/04 06:39:32;;;;;;;1.60;0.70;;;6.70;86.10;;;;;;5072793;28;20229;-66
2021/11/04 06:42:00;;;;;;;1.50;0.80;;;6.70;86.00;;;;;;5072825;28;20645;-67
2021/11/04 06:44:27;;;;;;;3.47;0.60;;;6.70;85.20;;;;;;5068077;28;20256;-66
2021/11/04 06:47:01;;;;;;;1.40;0.60;;;6.80;85.30;;;;;;5072690;28;20230;-67
2021/11/04 06:49:33;;;;;;;1.88;0.68;;;6.80;85.20;;;;;;5072405;28;20194;-67
2021/11/04 06:52:11;;;;;;;1.60;0.70;;;6.80;85.00;;;;;;5068695;28;20230;-66
2021/11/04 06:54:48;;;;;;;1.48;0.77;;;6.80;85.00;;;;;;5072333;28;20259;-68
2021/11/04 06:57:19;;;;;;;1.60;0.63;;;6.80;84.60;;;;;;5072992;28;20264;-67
2021/11/04 06:59:49;;;;;;;1.48;0.60;;;6.90;84.90;;;;;;5072006;28;20214;-67
2021/11/04 07:02:29;;;;;;;1.50;0.60;;;6.90;85.10;;;;;;5072317;28;20252;-66
2021/11/04 07:05:00;;;;;;;1.60;0.80;;;7.00;84.80;;;;;;5071505;28;20549;-67
2021/11/04 07:07:43;;;;;;;1.40;0.57;;;7.00;84.50;;;;;;5072851;28;20189;-67
2021/11/04 07:10:12;;;;;;;1.40;0.60;;;7.00;84.50;;;;;;5072680;28;20194;-67
2021/11/04 07:12:47;;;;;;;1.42;0.70;;;7.00;84.50;;;;;;5072010;28;20194;-67
2021/11/04 07:15:30;;;;;;;1.40;0.60;;;7.00;84.10;;;;;;5072334;28;20193;-66
2021/11/04 07:18:03;;;;;;;2.38;0.63;;;7.00;84.40;;;;;;5072813;28;20212;-67
2021/11/04 07:20:38;;;;;;;1.40;0.60;;;7.00;84.00;;;;;;5071896;28;20214;-66
2021/11/04 07:23:18;;;;;;;1.80;1.00;;;7.00;83.30;;;;;;5072835;28;20190;-66
2021/11/04 07:26:08;;;;;;;3.58;1.70;;;7.00;83.20;;;;;;5072056;28;20230;-66
2021/11/04 07:28:41;;;;;;;1.80;0.75;;;7.00;83.50;;;;;;5071393;28;20657;-66
2021/11/04 07:31:12;;;;;;;1.85;1.17;;;7.00;83.30;;;;;;5068430;28;20189;-66
2021/11/04 07:33:44;;;;;;;3.63;2.10;;;7.00;83.70;;;;;;5072946;28;20278;-66
2021/11/04 07:36:16;;;;;;;2.40;1.33;;;7.00;83.50;;;;;;5070614;28;20652;-66
2021/11/04 07:38:46;;;;;;;1.60;0.80;;;7.00;83.30;;;;;;5072295;28;20221;-67
2021/11/04 07:41:16;;;;;;;1.75;0.85;;;7.00;82.90;;;;;;5072339;28;20186;-67
2021/11/04 07:43:49;;;;;;;1.70;0.80;;;7.00;82.60;;;;;;5071585;28;20640;-67
2021/11/04 07:46:17;;;;;;;1.95;0.70;;;7.10;83.40;;;;;;5072074;28;20629;-66
2021/11/04 07:48:48;;;;;;;1.40;0.60;;;7.10;83.20;;;;;;5070972;28;20191;-67
2021/11/04 07:51:16;;;;;;;1.83;0.90;;;7.00;82.20;;;;;;5068051;28;20610;-66
2021/11/04 07:53:46;;;;;;;6.00;0.70;;;6.90;82.30;;;;;;5069803;28;20190;-67
2021/11/04 07:56:21;;;;;;;1.73;1.02;;;6.90;82.20;;;;;;5069633;28;20178;-66
2021/11/04 07:58:49;;;;;;;6.30;1.42;;;6.90;82.90;;;;;;5067557;28;20558;-66
2021/11/04 08:01:21;;;;;;;1.60;0.60;;;7.00;82.40;;;;;;5071429;28;20277;-66
2021/11/04 08:03:50;;;;;;;1.50;0.60;;;6.90;81.90;;;;;;5070378;28;20193;-67
2021/11/04 08:06:21;;;;;;;1.60;0.73;;;6.90;82.40;;;;;;5071631;28;20248;-66
2021/11/04 08:08:54;;;;;;;2.83;0.90;;;6.90;82.40;;;;;;5070356;28;20187;-67
2021/11/04 08:11:29;;;;;;;1.55;0.63;;;7.00;82.70;;;;;;5071142;28;20213;-67
2021/11/04 08:14:02;;;;;;;2.03;1.00;;;7.00;82.90;;;;;;5071059;28;20689;-67
2021/11/04 08:16:42;;;;;;;2.50;0.95;;;7.10;83.10;;;;;;5068689;28;20240;-67
2021/11/04 08:19:13;;;;;;;2.65;1.50;;;7.20;83.00;;;;;;5068210;28;20695;-67
2021/11/04 08:21:42;;;;;;;1.65;0.82;;;7.20;83.10;;;;;;5068550;28;20202;-68
2021/11/04 08:24:30;;;;;;;2.67;0.80;;;7.20;82.40;;;;;;5069866;28;20529;-67
2021/11/04 08:27:00;;;;;;;1.60;0.70;;;7.10;81.90;;;;;;5067244;28;20193;-67
2021/11/04 08:29:34;;;;;;;3.13;0.77;;;7.20;82.20;;;;;;5070792;28;20229;-66
2021/11/04 08:32:05;;;;;;;5.82;0.80;;;7.20;82.60;;;;;;5070340;28;20198;-67
2021/11/04 08:34:39;;;;;;;1.40;0.60;;;7.20;81.70;;;;;;5067955;28;20194;-67
2021/11/04 08:37:12;;;;;;;1.40;0.60;;;7.20;82.00;;;;;;5070149;28;20253;-67
2021/11/04 08:39:45;;;;;;;1.50;0.70;;;7.30;82.00;;;;;;5069907;28;21201;-66
2021/11/04 08:42:17;;;;;;;1.70;0.80;;;7.40;82.00;;;;;;5070469;28;20236;-67
2021/11/04 08:44:46;;;;;;;1.50;0.70;;;7.40;81.20;;;;;;5069340;28;20206;-67
2021/11/04 08:47:17;;;;;;;1.40;0.60;;;7.40;81.10;;;;;;5070299;28;20589;-67
2021/11/04 08:49:51;;;;;;;1.60;0.70;;;7.50;81.20;;;;;;5070382;28;20274;-68
2021/11/04 08:52:23;;;;;;;1.60;0.60;;;7.70;81.60;;;;;;5070126;28;20628;-67
2021/11/04 08:55:01;;;;;;;1.90;0.80;;;7.90;78.50;;;;;;5070115;28;20237;-67
2021/11/04 08:57:42;;;;;;;5.00;0.82;;;8.10;78.30;;;;;;5069892;28;20202;-66
2021/11/04 09:00:13;;;;;;;4.72;1.15;;;8.30;79.10;;;;;;5069323;28;20696;-66
2021/11/04 09:02:43;;;;;;;3.67;0.80;;;8.40;77.40;;;;;;5070104;28;20648;-67
2021/11/04 09:05:12;;;;;;;1.80;0.70;;;8.50;78.00;;;;;;5070207;28;20209;-67
2021/11/04 09:07:44;;;;;;;1.55;0.75;;;8.60;76.80;;;;;;5070217;28;20225;-67
2021/11/04 09:10:14;;;;;;;1.50;0.77;;;8.70;75.60;;;;;;5068225;28;20204;-68
2021/11/04 09:12:57;;;;;;;2.30;1.20;;;8.70;74.90;;;;;;5070119;28;20237;-68
2021/11/04 09:15:24;;;;;;;1.50;0.75;;;8.80;73.30;;;;;;5073979;28;20197;-67
2021/11/04 09:17:59;;;;;;;1.40;0.60;;;8.80;74.20;;;;;;5073905;28;20318;-67
2021/11/04 09:20:36;;;;;;;1.80;1.10;;;8.90;73.60;;;;;;5073987;28;20248;-67
2021/11/04 09:23:08;;;;;;;1.90;0.80;;;9.20;72.90;;;;;;5071702;28;20241;-67
2021/11/04 09:25:36;;;;;;;1.83;0.80;;;9.30;73.90;;;;;;5073362;28;20194;-68
2021/11/04 09:28:07;;;;;;;1.40;0.60;;;9.40;72.50;;;;;;5072804;28;20206;-67
2021/11/04 09:30:45;;;;;;;1.60;0.80;;;9.50;71.20;;;;;;5074025;28;20186;-67
2021/11/04 09:33:20;;;;;;;2.35;0.90;;;9.50;71.50;;;;;;5071182;28;20225;-67
2021/11/04 09:35:55;;;;;;;1.60;0.70;;;9.70;70.70;;;;;;5072532;28;20251;-67
2021/11/04 09:38:26;;;;;;;1.70;0.80;;;9.90;71.30;;;;;;5073572;28;20201;-67
2021/11/04 09:40:58;;;;;;;1.58;0.90;;;10.00;68.80;;;;;;5073666;28;20221;-67
2021/11/04 09:43:25;;;;;;;1.77;0.75;;;9.90;68.00;;;;;;5073533;28;20194;-67
2021/11/04 09:46:14;;;;;;;1.40;0.68;;;9.90;68.80;;;;;;5072805;28;20283;-67
2021/11/04 09:48:50;;;;;;;1.88;0.75;;;9.90;69.00;;;;;;5072445;28;20222;-67
2021/11/04 09:51:19;;;;;;;1.52;0.75;;;9.80;66.40;;;;;;5073303;28;20290;-68
2021/11/04 09:54:01;;;;;;;1.50;0.80;;;9.70;67.30;;;;;;5073437;28;20582;-68
2021/11/04 09:56:34;;;;;;;1.50;0.75;;;9.80;69.20;;;;;;5073732;28;20573;-67
2021/11/04 09:59:23;;;;;;;5.85;0.88;;;9.80;68.80;;;;;;5072145;28;20251;-67
2021/11/04 10:02:07;;;;;;;1.50;0.90;;;9.90;69.00;;;;;;5071968;28;20198;-68
2021/11/04 10:04:48;;;;;;;1.80;0.73;;;10.10;66.40;;;;;;5071006;28;20193;-67
2021/11/04 10:07:22;;;;;;;1.77;0.80;;;10.10;63.50;;;;;;5072730;28;20235;-67
2021/11/04 10:10:04;;;;;;;1.60;0.90;;;10.20;65.10;;;;;;5073145;28;20252;-67
2021/11/04 10:12:36;;;;;;;1.83;0.93;;;10.60;66.40;;;;;;5071379;28;20641;-68
2021/11/04 10:15:22;;;;;;;1.80;1.00;;;11.20;63.50;;;;;;5071931;28;20194;-67
2021/11/04 10:17:49;;;;;;;1.70;0.90;;;11.90;59.30;;;;;;5070584;28;20194;-67
2021/11/04 10:20:31;;;;;;;1.60;0.88;;;12.50;57.70;;;;;;5071200;28;20226;-69
2021/11/04 10:23:31;;;;;;;1.73;0.93;;;13.60;57.20;;;;;;5070508;28;20248;-68
2021/11/04 10:26:23;;;;;;;1.60;0.60;;;16.60;53.70;;;;;;5071242;28;20610;-68
2021/11/04 10:28:59;;;;;;;1.50;0.60;;;18.10;47.20;;;;;;5070648;28;20949;-68
2021/11/04 10:31:41;;;;;;;1.50;0.63;;;19.70;45.10;;;;;;5072099;28;20446;-68
2021/11/04 10:34:25;;;;;;;1.43;0.60;;;20.40;38.90;;;;;;5071600;28;20805;-70
2021/11/04 10:37:20;;;;;;;1.53;0.73;;;19.90;39.10;;;;;;5070647;28;20440;-69
2021/11/04 10:40:00;;;;;;;1.70;0.77;;;19.70;38.60;;;;;;5070742;28;20541;-68
2021/11/04 10:42:53;;;;;;;1.60;0.90;;;19.60;38.00;;;;;;5071839;28;20525;-68
2021/11/04 10:45:32;;;;;;;1.67;0.70;;;19.30;35.30;;;;;;5070940;28;20468;-68
2021/11/04 10:48:23;;;;;;;1.50;0.80;;;18.70;37.10;;;;;;5070802;28;20515;-69
2021/11/04 10:50:56;;;;;;;1.50;0.73;;;20.50;36.90;;;;;;5037099;28;20951;-70
2021/11/04 10:53:41;;;;;;;1.53;0.60;;;21.20;34.70;;;;;;5071098;28;20452;-68
2021/11/04 10:56:22;;;;;;;2.60;1.30;;;20.80;33.10;;;;;;5072300;28;20436;-67
2021/11/04 10:59:04;;;;;;;1.63;0.60;;;19.70;32.90;;;;;;5067381;28;20475;-68
2021/11/04 11:01:42;;;;;;;1.67;0.77;;;18.50;32.70;;;;;;5071252;28;20487;-67
2021/11/04 11:04:16;;;;;;;1.53;0.60;;;17.60;35.50;;;;;;5071636;28;20452;-68
2021/11/04 11:06:55;;;;;;;1.87;0.80;;;16.60;36.50;;;;;;5071473;28;20440;-67
2021/11/04 11:09:57;;;;;;;2.47;0.80;;;15.90;37.50;;;;;;5071507;28;20436;-68
2021/11/04 11:12:25;;;;;;;2.00;1.10;;;15.30;39.00;;;;;;5070672;28;20440;-67
2021/11/04 11:15:00;;;;;;;1.70;0.93;;;14.50;41.00;;;;;;5069068;28;20433;-67
2021/11/04 11:17:39;;;;;;;2.13;0.90;;;14.00;41.10;;;;;;5070292;28;20506;-68
2021/11/04 11:20:16;;;;;;;5.03;1.00;;;13.60;42.00;;;;;;5069747;28;21035;-67
2021/11/04 11:22:49;;;;;;;1.80;0.80;;;13.40;43.50;;;;;;5069603;28;20523;-67
2021/11/04 11:25:32;;;;;;;1.97;1.27;;;13.20;44.20;;;;;;5070900;28;20517;-67
2021/11/04 11:28:25;;;;;;;1.60;0.80;;;13.20;45.90;;;;;;5069989;28;20446;-67
2021/11/04 11:31:19;;;;;;;3.10;1.17;;;14.00;46.80;;;;;;5069645;28;20503;-68
2021/11/04 11:34:11;;;;;;;1.63;0.83;;;15.20;45.00;;;;;;5057650;28;20959;-67
2021/11/04 11:37:21;;;;;;;3.90;1.03;;;15.40;42.40;;;;;;5068556;28;20452;-67
2021/11/04 11:39:51;;;;;;;1.90;1.03;;;15.10;42.30;;;;;;5069921;28;20996;-67
2021/11/04 11:42:54;;;;;;;1.93;1.10;;;14.80;41.60;;;;;;5070817;28;20461;-67
2021/11/04 11:45:33;;;;;;;1.70;1.00;;;14.70;42.50;;;;;;5070227;28;21051;-67
2021/11/04 11:48:17;;;;;;;1.80;0.90;;;14.60;42.60;;;;;;5070559;28;20533;-68
2021/11/04 11:50:45;;;;;;;3.30;0.97;;;14.40;42.50;;;;;;5069440;28;20523;-67
2021/11/04 11:53:34;;;;;;;4.27;1.40;;;14.30;42.30;;;;;;5070341;28;20989;-67
2021/11/04 11:56:21;;;;;;;1.70;0.90;;;14.30;43.40;;;;;;5070180;28;20433;-68
2021/11/04 11:59:30;;;;;;;1.90;1.10;;;14.50;43.80;;;;;;5069518;28;20535;-69
2021/11/04 12:02:41;;;;;;;2.23;1.20;;;14.60;43.10;;;;;;5069776;28;20471;-67
2021/11/04 12:05:38;;;;;;;2.03;1.03;;;15.40;41.40;;;;;;5068825;28;20441;-68
2021/11/04 12:08:34;;;;;;;2.33;1.00;;;14.80;40.30;;;;;;5069343;28;20436;-67
2021/11/04 12:11:04;;;;;;;3.47;1.40;;;14.30;41.20;;;;;;5070856;28;20446;-66
2021/11/04 12:13:38;;;;;;;2.13;1.33;;;13.90;41.90;;;;;;5072016;28;20475;-67
2021/11/04 12:16:18;;;;;;;1.90;1.10;;;13.60;43.00;;;;;;5068332;28;20538;-67
2021/11/04 12:18:50;;;;;;;1.80;1.00;;;13.50;44.00;;;;;;5069586;28;20841;-67
2021/11/04 12:21:29;;;;;;;1.50;0.80;;;13.20;43.80;;;;;;5071298;28;20559;-67
2021/11/04 12:24:04;;;;;;;2.30;1.48;;;12.80;43.50;;;;;;5071307;28;20793;-67
2021/11/04 12:26:39;;;;;;;1.70;0.90;;;12.50;44.10;;;;;;5071564;28;20263;-67
2021/11/04 12:29:11;;;;;;;2.90;1.30;;;12.30;44.90;;;;;;5068503;28;20229;-67
2021/11/04 12:31:44;;;;;;;2.30;1.50;;;12.00;45.70;;;;;;5065993;28;20198;-67
2021/11/04 12:34:59;;;;;;;2.72;1.35;;;12.00;46.40;;;;;;5067008;28;20200;-68
2021/11/04 12:37:45;;;;;;;5.28;1.40;;;11.90;46.50;;;;;;5069289;28;20640;-66
2021/11/04 12:40:22;;;;;;;1.90;1.00;;;12.00;46.80;;;;;;5067537;28;20724;-67
2021/11/04 12:45:39;;;;;;;4.25;1.80;;;11.90;46.70;;;;;;5070587;28;20225;-67
2021/11/04 12:48:07;;;;;;;1.92;1.35;;;11.80;46.90;;;;;;5070973;28;20198;-66
2021/11/04 12:50:34;;;;;;;2.60;1.42;;;11.70;47.00;;;;;;5071817;28;20643;-66
2021/11/04 12:53:07;;;;;;;2.33;1.40;;;11.60;47.00;;;;;;5071932;28;20198;-66
2021/11/04 12:55:36;;;;;;;2.78;1.90;;;11.40;47.40;;;;;;5072218;28;20225;-66
2021/11/04 12:58:06;;;;;;;2.97;2.08;;;11.30;48.00;;;;;;5071480;28;20221;-66
2021/11/04 13:00:33;;;;;;;2.45;1.30;;;11.20;48.00;;;;;;5071097;28;20225;-66
2021/11/04 13:03:06;;;;;;;2.00;1.20;;;11.10;47.60;;;;;;5071327;28;20255;-66
2021/11/04 13:05:38;;;;;;;1.90;1.25;;;11.00;48.20;;;;;;5071613;28;20534;-66
2021/11/04 13:08:08;;;;;;;3.95;1.80;;;10.90;48.60;;;;;;5071376;28;20206;-67
2021/11/04 13:10:38;;;;;;;6.55;3.78;;;10.90;48.90;;;;;;5071500;28;20564;-66
2021/11/04 13:13:05;;;;;;;6.78;4.22;;;10.80;49.50;;;;;;5071257;28;20230;-66
2021/11/04 13:15:34;;;;;;;10.00;5.30;;;10.80;49.60;;;;;;5071480;28;20289;-66
2021/11/04 13:18:05;;;;;;;3.67;2.13;;;10.70;49.50;;;;;;5070804;28;20194;-68
2021/11/04 13:20:34;;;;;;;3.80;2.20;;;10.70;49.80;;;;;;5071353;28;20232;-67
2021/11/04 13:23:07;;;;;;;2.78;1.45;;;10.60;49.70;;;;;;5071317;28;20194;-67
2021/11/04 13:25:38;;;;;;;4.75;2.40;;;10.50;49.40;;;;;;5071471;28;20201;-66
2021/11/04 13:28:11;;;;;;;19.95;10.15;;;10.50;50.40;;;;;;5071120;28;20272;-67
2021/11/04 13:30:43;;;;;;;17.65;7.75;;;10.60;50.40;;;;;;5071501;28;20186;-66
2021/11/04 13:33:10;;;;;;;5.88;3.85;;;10.70;50.70;;;;;;5071367;28;20210;-67